sensor_id;sensor_type;location;lat;lon;timestamp;P1;durP1;ratioP1;P2;durP2;ratioP2
71343;SDS011;59146;43.850;25.948;2022-07-09T00:00:24;18.17;;;7.50;;
71343;SDS011;59146;43.850;25.948;2022-07-09T00:02:49;13.52;;;6.90;;
71343;SDS011;59146;43.850;25.948;2022-07-09T00:05:15;14.00;;;7.20;;
71343;SDS011;59146;43.850;25.948;2022-07-09T00:07:40;10.77;;;6.70;;
71343;SDS011;59146;43.850;25.948;2022-07-09T00:10:06;13.13;;;7.05;;
71343;SDS011;59146;43.850;25.948;2022-07-09T00:12:34;15.50;;;7.35;;
71343;SDS011;59146;43.850;25.948;2022-07-09T00:14:59;16.23;;;7.30;;
71343;SDS011;59146;43.850;25.948;2022-07-09T00:17:25;12.48;;;7.43;;
71343;SDS011;59146;43.850;25.948;2022-07-09T00:19:51;17.02;;;6.50;;
71343;SDS011;59146;43.850;25.948;2022-07-09T00:22:19;9.43;;;6.00;;
71343;SDS011;59146;43.850;25.948;2022-07-09T00:24:55;13.23;;;6.75;;
71343;SDS011;59146;43.850;25.948;2022-07-09T00:33:31;20.50;;;5.95;;
71343;SDS011;59146;43.850;25.948;2022-07-09T00:35:57;16.20;;;6.05;;
71343;SDS011;59146;43.850;25.948;2022-07-09T00:38:22;15.15;;;5.82;;
71343;SDS011;59146;43.850;25.948;2022-07-09T00:40:48;12.93;;;6.40;;
71343;SDS011;59146;43.850;25.948;2022-07-09T00:43:15;9.07;;;5.38;;
71343;SDS011;59146;43.850;25.948;2022-07-09T00:45:44;10.77;;;5.72;;
71343;SDS011;59146;43.850;25.948;2022-07-09T00:48:10;11.45;;;4.97;;
71343;SDS011;59146;43.850;25.948;2022-07-09T00:50:36;14.65;;;6.05;;
71343;SDS011;59146;43.850;25.948;2022-07-09T00:53:02;12.25;;;6.00;;
71343;SDS011;59146;43.850;25.948;2022-07-09T00:55:28;10.85;;;5.43;;
71343;SDS011;59146;43.850;25.948;2022-07-09T00:57:54;7.82;;;5.32;;
71343;SDS011;59146;43.850;25.948;2022-07-09T01:00:19;13.82;;;6.05;;
71343;SDS011;59146;43.850;25.948;2022-07-09T01:02:46;9.32;;;5.38;;
71343;SDS011;59146;43.850;25.948;2022-07-09T01:05:14;13.27;;;5.53;;
71343;SDS011;59146;43.850;25.948;2022-07-09T01:10:59;9.52;;;5.32;;
71343;SDS011;59146;43.850;25.948;2022-07-09T01:13:45;9.90;;;5.55;;
71343;SDS011;59146;43.850;25.948;2022-07-09T01:16:12;10.38;;;5.95;;
71343;SDS011;59146;43.850;25.948;2022-07-09T01:18:39;10.73;;;4.97;;
71343;SDS011;59146;43.850;25.948;2022-07-09T01:21:04;11.40;;;5.38;;
71343;SDS011;59146;43.850;25.948;2022-07-09T01:23:30;9.27;;;5.70;;
71343;SDS011;59146;43.850;25.948;2022-07-09T01:25:58;11.77;;;6.15;;
71343;SDS011;59146;43.850;25.948;2022-07-09T01:28:27;12.57;;;5.75;;
71343;SDS011;59146;43.850;25.948;2022-07-09T01:30:55;19.33;;;6.53;;
71343;SDS011;59146;43.850;25.948;2022-07-09T01:36:21;9.68;;;5.90;;
71343;SDS011;59146;43.850;25.948;2022-07-09T01:38:47;13.23;;;6.45;;
71343;SDS011;59146;43.850;25.948;2022-07-09T01:41:45;16.45;;;6.15;;
71343;SDS011;59146;43.850;25.948;2022-07-09T01:44:37;10.48;;;6.78;;
71343;SDS011;59146;43.850;25.948;2022-07-09T01:47:02;10.77;;;6.25;;
71343;SDS011;59146;43.850;25.948;2022-07-09T01:49:28;13.95;;;6.65;;
71343;SDS011;59146;43.850;25.948;2022-07-09T01:51:53;12.32;;;6.20;;
71343;SDS011;59146;43.850;25.948;2022-07-09T01:54:28;16.05;;;6.50;;
71343;SDS011;59146;43.850;25.948;2022-07-09T01:57:11;12.27;;;5.95;;
71343;SDS011;59146;43.850;25.948;2022-07-09T02:02:30;12.88;;;5.78;;
71343;SDS011;59146;43.850;25.948;2022-07-09T02:04:56;11.25;;;5.90;;
71343;SDS011;59146;43.850;25.948;2022-07-09T02:07:21;11.13;;;6.35;;
71343;SDS011;59146;43.850;25.948;2022-07-09T02:09:47;15.75;;;6.53;;
71343;SDS011;59146;43.850;25.948;2022-07-09T02:12:14;9.00;;;5.78;;
71343;SDS011;59146;43.850;25.948;2022-07-09T02:14:40;8.38;;;5.30;;
71343;SDS011;59146;43.850;25.948;2022-07-09T02:17:06;9.10;;;4.65;;
71343;SDS011;59146;43.850;25.948;2022-07-09T02:19:31;10.15;;;4.90;;
71343;SDS011;59146;43.850;25.948;2022-07-09T02:21:57;11.80;;;4.10;;
71343;SDS011;59146;43.850;25.948;2022-07-09T02:24:24;8.40;;;4.07;;
71343;SDS011;59146;43.850;25.948;2022-07-09T02:26:50;6.90;;;4.25;;
71343;SDS011;59146;43.850;25.948;2022-07-09T02:29:15;10.25;;;5.70;;
71343;SDS011;59146;43.850;25.948;2022-07-09T02:37:48;13.48;;;6.72;;
71343;SDS011;59146;43.850;25.948;2022-07-09T02:40:16;11.98;;;6.05;;
71343;SDS011;59146;43.850;25.948;2022-07-09T02:42:41;16.15;;;5.70;;
71343;SDS011;59146;43.850;25.948;2022-07-09T02:45:07;8.48;;;4.15;;
71343;SDS011;59146;43.850;25.948;2022-07-09T02:47:33;10.63;;;5.78;;
71343;SDS011;59146;43.850;25.948;2022-07-09T02:50:01;13.48;;;6.63;;
71343;SDS011;59146;43.850;25.948;2022-07-09T02:54:54;22.50;;;7.68;;
71343;SDS011;59146;43.850;25.948;2022-07-09T02:57:30;16.20;;;7.40;;
71343;SDS011;59146;43.850;25.948;2022-07-09T02:59:58;24.02;;;7.97;;
71343;SDS011;59146;43.850;25.948;2022-07-09T03:02:31;17.88;;;7.90;;
71343;SDS011;59146;43.850;25.948;2022-07-09T03:04:57;12.98;;;7.05;;
71343;SDS011;59146;43.850;25.948;2022-07-09T03:07:22;12.85;;;5.07;;
71343;SDS011;59146;43.850;25.948;2022-07-09T03:09:50;13.02;;;4.78;;
71343;SDS011;59146;43.850;25.948;2022-07-09T03:12:30;14.05;;;4.45;;
71343;SDS011;59146;43.850;25.948;2022-07-09T03:14:59;8.63;;;3.65;;
71343;SDS011;59146;43.850;25.948;2022-07-09T03:17:24;10.45;;;3.55;;
71343;SDS011;59146;43.850;25.948;2022-07-09T03:19:51;7.03;;;3.17;;
71343;SDS011;59146;43.850;25.948;2022-07-09T03:22:17;7.53;;;4.28;;
71343;SDS011;59146;43.850;25.948;2022-07-09T03:24:43;4.30;;;3.60;;
71343;SDS011;59146;43.850;25.948;2022-07-09T03:27:08;6.85;;;3.90;;
71343;SDS011;59146;43.850;25.948;2022-07-09T03:29:41;8.57;;;4.43;;
71343;SDS011;59146;43.850;25.948;2022-07-09T03:32:15;11.45;;;4.05;;
71343;SDS011;59146;43.850;25.948;2022-07-09T03:34:41;15.30;;;4.50;;
71343;SDS011;59146;43.850;25.948;2022-07-09T03:37:12;8.55;;;3.45;;
71343;SDS011;59146;43.850;25.948;2022-07-09T03:39:38;15.00;;;5.03;;
71343;SDS011;59146;43.850;25.948;2022-07-09T03:42:15;13.75;;;5.25;;
71343;SDS011;59146;43.850;25.948;2022-07-09T03:44:48;22.67;;;6.63;;
71343;SDS011;59146;43.850;25.948;2022-07-09T03:50:03;17.85;;;5.43;;
71343;SDS011;59146;43.850;25.948;2022-07-09T03:52:54;9.45;;;4.40;;
71343;SDS011;59146;43.850;25.948;2022-07-09T03:56:02;12.10;;;4.70;;
71343;SDS011;59146;43.850;25.948;2022-07-09T03:58:48;17.83;;;5.57;;
71343;SDS011;59146;43.850;25.948;2022-07-09T04:01:13;16.92;;;6.20;;
71343;SDS011;59146;43.850;25.948;2022-07-09T04:03:39;8.32;;;5.05;;
71343;SDS011;59146;43.850;25.948;2022-07-09T04:06:04;9.05;;;6.00;;
71343;SDS011;59146;43.850;25.948;2022-07-09T04:08:30;9.00;;;4.90;;
71343;SDS011;59146;43.850;25.948;2022-07-09T04:10:56;5.95;;;4.68;;
71343;SDS011;59146;43.850;25.948;2022-07-09T04:13:21;8.80;;;5.05;;
71343;SDS011;59146;43.850;25.948;2022-07-09T04:15:47;16.50;;;4.90;;
71343;SDS011;59146;43.850;25.948;2022-07-09T04:18:33;20.77;;;5.97;;
71343;SDS011;59146;43.850;25.948;2022-07-09T04:21:27;11.27;;;5.75;;
71343;SDS011;59146;43.850;25.948;2022-07-09T04:23:52;6.95;;;4.03;;
71343;SDS011;59146;43.850;25.948;2022-07-09T04:26:18;6.53;;;3.60;;
71343;SDS011;59146;43.850;25.948;2022-07-09T04:28:51;5.60;;;4.10;;
71343;SDS011;59146;43.850;25.948;2022-07-09T04:31:17;8.20;;;4.15;;
71343;SDS011;59146;43.850;25.948;2022-07-09T04:33:44;12.40;;;4.60;;
71343;SDS011;59146;43.850;25.948;2022-07-09T04:36:12;5.63;;;4.00;;
71343;SDS011;59146;43.850;25.948;2022-07-09T04:38:37;8.18;;;4.97;;
71343;SDS011;59146;43.850;25.948;2022-07-09T04:41:03;7.45;;;4.10;;
71343;SDS011;59146;43.850;25.948;2022-07-09T04:43:29;14.25;;;4.55;;
71343;SDS011;59146;43.850;25.948;2022-07-09T04:46:00;8.23;;;4.25;;
71343;SDS011;59146;43.850;25.948;2022-07-09T04:48:26;5.53;;;4.05;;
71343;SDS011;59146;43.850;25.948;2022-07-09T04:50:51;6.35;;;3.40;;
71343;SDS011;59146;43.850;25.948;2022-07-09T04:53:17;10.80;;;3.83;;
71343;SDS011;59146;43.850;25.948;2022-07-09T04:55:42;8.43;;;3.47;;
71343;SDS011;59146;43.850;25.948;2022-07-09T04:58:11;6.10;;;3.63;;
71343;SDS011;59146;43.850;25.948;2022-07-09T05:00:36;6.28;;;3.47;;
71343;SDS011;59146;43.850;25.948;2022-07-09T05:03:02;5.85;;;3.60;;
71343;SDS011;59146;43.850;25.948;2022-07-09T05:05:30;6.20;;;3.58;;
71343;SDS011;59146;43.850;25.948;2022-07-09T05:08:05;10.15;;;3.92;;
71343;SDS011;59146;43.850;25.948;2022-07-09T05:10:31;7.35;;;3.60;;
71343;SDS011;59146;43.850;25.948;2022-07-09T05:12:56;12.27;;;4.28;;
71343;SDS011;59146;43.850;25.948;2022-07-09T05:15:22;5.97;;;4.45;;
71343;SDS011;59146;43.850;25.948;2022-07-09T05:17:49;9.70;;;3.70;;
71343;SDS011;59146;43.850;25.948;2022-07-09T05:20:15;13.13;;;3.50;;
71343;SDS011;59146;43.850;25.948;2022-07-09T05:22:40;5.43;;;3.13;;
71343;SDS011;59146;43.850;25.948;2022-07-09T05:25:06;7.00;;;3.33;;
71343;SDS011;59146;43.850;25.948;2022-07-09T05:27:32;6.00;;;3.40;;
71343;SDS011;59146;43.850;25.948;2022-07-09T05:30:05;9.40;;;3.50;;
71343;SDS011;59146;43.850;25.948;2022-07-09T05:32:34;5.70;;;3.30;;
71343;SDS011;59146;43.850;25.948;2022-07-09T05:34:59;16.52;;;3.40;;
71343;SDS011;59146;43.850;25.948;2022-07-09T05:37:25;5.22;;;3.17;;
71343;SDS011;59146;43.850;25.948;2022-07-09T05:39:56;14.77;;;2.88;;
71343;SDS011;59146;43.850;25.948;2022-07-09T05:42:22;8.18;;;3.47;;
71343;SDS011;59146;43.850;25.948;2022-07-09T05:44:47;8.35;;;3.35;;
71343;SDS011;59146;43.850;25.948;2022-07-09T05:47:15;7.30;;;3.85;;
71343;SDS011;59146;43.850;25.948;2022-07-09T05:49:44;7.57;;;2.60;;
71343;SDS011;59146;43.850;25.948;2022-07-09T05:52:09;8.75;;;2.90;;
71343;SDS011;59146;43.850;25.948;2022-07-09T05:54:39;9.75;;;3.28;;
71343;SDS011;59146;43.850;25.948;2022-07-09T05:57:05;6.85;;;3.17;;
71343;SDS011;59146;43.850;25.948;2022-07-09T05:59:30;8.98;;;3.30;;
71343;SDS011;59146;43.850;25.948;2022-07-09T06:01:58;6.93;;;2.92;;
71343;SDS011;59146;43.850;25.948;2022-07-09T06:04:31;8.45;;;3.10;;
71343;SDS011;59146;43.850;25.948;2022-07-09T06:07:06;6.72;;;3.05;;
71343;SDS011;59146;43.850;25.948;2022-07-09T06:09:31;4.93;;;2.90;;
71343;SDS011;59146;43.850;25.948;2022-07-09T06:12:05;5.35;;;2.83;;
71343;SDS011;59146;43.850;25.948;2022-07-09T06:14:33;6.45;;;2.80;;
71343;SDS011;59146;43.850;25.948;2022-07-09T06:16:59;5.68;;;2.38;;
71343;SDS011;59146;43.850;25.948;2022-07-09T06:19:40;5.20;;;2.63;;
71343;SDS011;59146;43.850;25.948;2022-07-09T06:22:05;5.03;;;2.60;;
71343;SDS011;59146;43.850;25.948;2022-07-09T06:24:33;8.30;;;3.30;;
71343;SDS011;59146;43.850;25.948;2022-07-09T06:27:24;5.13;;;3.08;;
71343;SDS011;59146;43.850;25.948;2022-07-09T06:29:52;5.57;;;2.42;;
71343;SDS011;59146;43.850;25.948;2022-07-09T06:32:25;3.58;;;2.63;;
71343;SDS011;59146;43.850;25.948;2022-07-09T06:35:03;6.28;;;2.50;;
71343;SDS011;59146;43.850;25.948;2022-07-09T06:37:39;12.30;;;3.08;;
71343;SDS011;59146;43.850;25.948;2022-07-09T06:40:10;6.63;;;3.53;;
71343;SDS011;59146;43.850;25.948;2022-07-09T06:42:47;5.95;;;3.28;;
71343;SDS011;59146;43.850;25.948;2022-07-09T06:45:14;9.35;;;3.63;;
71343;SDS011;59146;43.850;25.948;2022-07-09T06:47:40;15.57;;;3.10;;
71343;SDS011;59146;43.850;25.948;2022-07-09T06:50:06;6.35;;;3.83;;
71343;SDS011;59146;43.850;25.948;2022-07-09T06:52:57;9.18;;;4.05;;
71343;SDS011;59146;43.850;25.948;2022-07-09T06:55:28;9.15;;;4.10;;
71343;SDS011;59146;43.850;25.948;2022-07-09T06:57:56;13.70;;;4.13;;
71343;SDS011;59146;43.850;25.948;2022-07-09T07:00:22;8.25;;;4.72;;
71343;SDS011;59146;43.850;25.948;2022-07-09T07:02:49;10.65;;;4.55;;
71343;SDS011;59146;43.850;25.948;2022-07-09T07:05:17;9.57;;;4.65;;
71343;SDS011;59146;43.850;25.948;2022-07-09T07:07:42;10.68;;;4.22;;
71343;SDS011;59146;43.850;25.948;2022-07-09T07:10:08;8.88;;;4.38;;
71343;SDS011;59146;43.850;25.948;2022-07-09T07:12:34;8.15;;;4.75;;
71343;SDS011;59146;43.850;25.948;2022-07-09T07:15:09;10.27;;;5.00;;
71343;SDS011;59146;43.850;25.948;2022-07-09T07:17:35;7.00;;;5.03;;
71343;SDS011;59146;43.850;25.948;2022-07-09T07:20:08;7.85;;;4.60;;
71343;SDS011;59146;43.850;25.948;2022-07-09T07:22:54;8.07;;;4.40;;
71343;SDS011;59146;43.850;25.948;2022-07-09T07:25:22;10.18;;;4.03;;
71343;SDS011;59146;43.850;25.948;2022-07-09T07:27:53;15.80;;;3.88;;
71343;SDS011;59146;43.850;25.948;2022-07-09T07:30:23;7.60;;;3.60;;
71343;SDS011;59146;43.850;25.948;2022-07-09T07:32:59;8.05;;;3.35;;
71343;SDS011;59146;43.850;25.948;2022-07-09T07:35:37;10.65;;;3.30;;
71343;SDS011;59146;43.850;25.948;2022-07-09T07:38:34;13.52;;;3.50;;
71343;SDS011;59146;43.850;25.948;2022-07-09T07:41:15;7.30;;;2.57;;
71343;SDS011;59146;43.850;25.948;2022-07-09T07:43:48;12.25;;;3.50;;
71343;SDS011;59146;43.850;25.948;2022-07-09T07:46:14;9.90;;;2.92;;
71343;SDS011;59146;43.850;25.948;2022-07-09T07:48:39;8.35;;;2.70;;
71343;SDS011;59146;43.850;25.948;2022-07-09T07:51:08;7.25;;;2.92;;
71343;SDS011;59146;43.850;25.948;2022-07-09T07:53:37;5.63;;;2.70;;
71343;SDS011;59146;43.850;25.948;2022-07-09T07:56:09;6.75;;;2.30;;
71343;SDS011;59146;43.850;25.948;2022-07-09T07:58:35;5.95;;;2.28;;
71343;SDS011;59146;43.850;25.948;2022-07-09T08:01:03;2.88;;;2.30;;
71343;SDS011;59146;43.850;25.948;2022-07-09T08:03:29;3.83;;;1.98;;
71343;SDS011;59146;43.850;25.948;2022-07-09T08:05:57;3.28;;;1.80;;
71343;SDS011;59146;43.850;25.948;2022-07-09T08:08:25;5.13;;;2.20;;
71343;SDS011;59146;43.850;25.948;2022-07-09T08:10:54;5.97;;;2.08;;
71343;SDS011;59146;43.850;25.948;2022-07-09T08:13:22;6.63;;;2.20;;
71343;SDS011;59146;43.850;25.948;2022-07-09T08:15:50;8.43;;;2.40;;
71343;SDS011;59146;43.850;25.948;2022-07-09T08:18:24;4.30;;;1.70;;
71343;SDS011;59146;43.850;25.948;2022-07-09T08:20:54;5.05;;;1.80;;
71343;SDS011;59146;43.850;25.948;2022-07-09T08:23:19;3.15;;;1.90;;
71343;SDS011;59146;43.850;25.948;2022-07-09T08:25:48;4.68;;;1.60;;
71343;SDS011;59146;43.850;25.948;2022-07-09T08:28:14;7.30;;;2.10;;
71343;SDS011;59146;43.850;25.948;2022-07-09T08:30:47;2.90;;;1.83;;
71343;SDS011;59146;43.850;25.948;2022-07-09T08:33:18;8.82;;;1.85;;
71343;SDS011;59146;43.850;25.948;2022-07-09T08:35:46;4.63;;;1.90;;
71343;SDS011;59146;43.850;25.948;2022-07-09T08:38:17;5.53;;;2.03;;
71343;SDS011;59146;43.850;25.948;2022-07-09T08:40:45;5.97;;;1.85;;
71343;SDS011;59146;43.850;25.948;2022-07-09T08:43:19;6.90;;;2.10;;
71343;SDS011;59146;43.850;25.948;2022-07-09T08:45:52;8.38;;;2.00;;
71343;SDS011;59146;43.850;25.948;2022-07-09T08:51:34;4.53;;;2.10;;
71343;SDS011;59146;43.850;25.948;2022-07-09T08:54:15;8.88;;;2.20;;
71343;SDS011;59146;43.850;25.948;2022-07-09T08:56:55;6.40;;;2.30;;
71343;SDS011;59146;43.850;25.948;2022-07-09T08:59:20;5.75;;;2.40;;
71343;SDS011;59146;43.850;25.948;2022-07-09T09:01:45;8.13;;;1.95;;
71343;SDS011;59146;43.850;25.948;2022-07-09T09:04:11;6.53;;;2.00;;
71343;SDS011;59146;43.850;25.948;2022-07-09T09:06:37;9.30;;;1.90;;
71343;SDS011;59146;43.850;25.948;2022-07-09T09:09:06;6.57;;;1.88;;
71343;SDS011;59146;43.850;25.948;2022-07-09T09:11:33;3.10;;;1.70;;
71343;SDS011;59146;43.850;25.948;2022-07-09T09:14:01;4.72;;;1.75;;
71343;SDS011;59146;43.850;25.948;2022-07-09T09:16:28;6.80;;;2.97;;
71343;SDS011;59146;43.850;25.948;2022-07-09T09:18:59;15.73;;;1.80;;
71343;SDS011;59146;43.850;25.948;2022-07-09T09:21:25;8.27;;;1.90;;
71343;SDS011;59146;43.850;25.948;2022-07-09T09:23:55;5.80;;;1.80;;
71343;SDS011;59146;43.850;25.948;2022-07-09T09:26:28;3.65;;;1.73;;
71343;SDS011;59146;43.850;25.948;2022-07-09T09:28:55;4.35;;;1.95;;
71343;SDS011;59146;43.850;25.948;2022-07-09T09:31:26;3.40;;;1.48;;
71343;SDS011;59146;43.850;25.948;2022-07-09T09:33:54;10.05;;;2.42;;
71343;SDS011;59146;43.850;25.948;2022-07-09T09:36:37;5.97;;;1.90;;
71343;SDS011;59146;43.850;25.948;2022-07-09T09:39:14;3.75;;;1.60;;
71343;SDS011;59146;43.850;25.948;2022-07-09T09:45:19;7.50;;;2.08;;
71343;SDS011;59146;43.850;25.948;2022-07-09T09:48:02;6.82;;;1.65;;
71343;SDS011;59146;43.850;25.948;2022-07-09T09:50:49;3.40;;;1.42;;
71343;SDS011;59146;43.850;25.948;2022-07-09T09:56:42;2.38;;;1.50;;
71343;SDS011;59146;43.850;25.948;2022-07-09T09:59:09;12.30;;;1.60;;
71343;SDS011;59146;43.850;25.948;2022-07-09T10:01:35;4.47;;;1.48;;
71343;SDS011;59146;43.850;25.948;2022-07-09T10:04:01;2.85;;;1.60;;
71343;SDS011;59146;43.850;25.948;2022-07-09T10:06:27;16.42;;;1.90;;
71343;SDS011;59146;43.850;25.948;2022-07-09T10:08:53;5.65;;;1.60;;
71343;SDS011;59146;43.850;25.948;2022-07-09T10:11:20;7.60;;;1.90;;
71343;SDS011;59146;43.850;25.948;2022-07-09T10:13:50;6.28;;;2.28;;
71343;SDS011;59146;43.850;25.948;2022-07-09T10:16:16;4.90;;;1.55;;
71343;SDS011;59146;43.850;25.948;2022-07-09T10:18:54;5.25;;;1.50;;
71343;SDS011;59146;43.850;25.948;2022-07-09T10:23:58;6.50;;;2.28;;
71343;SDS011;59146;43.850;25.948;2022-07-09T10:26:34;6.35;;;1.77;;
71343;SDS011;59146;43.850;25.948;2022-07-09T10:31:50;4.43;;;1.80;;
71343;SDS011;59146;43.850;25.948;2022-07-09T10:37:04;8.85;;;2.05;;
71343;SDS011;59146;43.850;25.948;2022-07-09T10:39:30;3.75;;;1.65;;
71343;SDS011;59146;43.850;25.948;2022-07-09T10:42:00;8.60;;;2.10;;
71343;SDS011;59146;43.850;25.948;2022-07-09T10:44:44;5.57;;;1.67;;
71343;SDS011;59146;43.850;25.948;2022-07-09T10:47:16;3.58;;;2.00;;
71343;SDS011;59146;43.850;25.948;2022-07-09T10:49:42;3.42;;;1.27;;
71343;SDS011;59146;43.850;25.948;2022-07-09T10:52:07;4.38;;;1.88;;
71343;SDS011;59146;43.850;25.948;2022-07-09T10:54:34;8.02;;;1.80;;
71343;SDS011;59146;43.850;25.948;2022-07-09T10:57:10;5.55;;;1.70;;
71343;SDS011;59146;43.850;25.948;2022-07-09T10:59:35;10.65;;;1.80;;
71343;SDS011;59146;43.850;25.948;2022-07-09T11:02:01;7.55;;;1.60;;
71343;SDS011;59146;43.850;25.948;2022-07-09T11:04:30;2.70;;;1.50;;
71343;SDS011;59146;43.850;25.948;2022-07-09T11:06:57;3.90;;;1.70;;
71343;SDS011;59146;43.850;25.948;2022-07-09T11:09:29;7.38;;;2.30;;
71343;SDS011;59146;43.850;25.948;2022-07-09T11:11:55;8.57;;;3.42;;
71343;SDS011;59146;43.850;25.948;2022-07-09T11:14:26;8.02;;;3.15;;
71343;SDS011;59146;43.850;25.948;2022-07-09T11:16:55;8.98;;;3.60;;
71343;SDS011;59146;43.850;25.948;2022-07-09T11:19:23;3.80;;;2.88;;
71343;SDS011;59146;43.850;25.948;2022-07-09T11:22:01;9.52;;;3.08;;
71343;SDS011;59146;43.850;25.948;2022-07-09T11:24:30;9.57;;;2.50;;
71343;SDS011;59146;43.850;25.948;2022-07-09T11:27:00;5.03;;;1.80;;
71343;SDS011;59146;43.850;25.948;2022-07-09T11:29:36;4.07;;;1.77;;
71343;SDS011;59146;43.850;25.948;2022-07-09T11:32:02;4.40;;;1.73;;
71343;SDS011;59146;43.850;25.948;2022-07-09T11:34:28;7.97;;;1.88;;
71343;SDS011;59146;43.850;25.948;2022-07-09T11:36:58;6.18;;;1.80;;
71343;SDS011;59146;43.850;25.948;2022-07-09T11:39:30;10.07;;;2.13;;
71343;SDS011;59146;43.850;25.948;2022-07-09T11:42:21;3.33;;;2.00;;
71343;SDS011;59146;43.850;25.948;2022-07-09T11:44:53;8.35;;;2.63;;
71343;SDS011;59146;43.850;25.948;2022-07-09T11:47:20;6.55;;;2.65;;
71343;SDS011;59146;43.850;25.948;2022-07-09T11:50:12;4.40;;;1.85;;
71343;SDS011;59146;43.850;25.948;2022-07-09T11:52:54;5.40;;;2.20;;
71343;SDS011;59146;43.850;25.948;2022-07-09T11:55:28;5.55;;;2.05;;
71343;SDS011;59146;43.850;25.948;2022-07-09T11:57:57;2.60;;;1.83;;
71343;SDS011;59146;43.850;25.948;2022-07-09T12:00:30;8.95;;;2.85;;
71343;SDS011;59146;43.850;25.948;2022-07-09T12:03:00;7.20;;;2.38;;
71343;SDS011;59146;43.850;25.948;2022-07-09T12:05:33;4.10;;;2.22;;
71343;SDS011;59146;43.850;25.948;2022-07-09T12:08:05;8.70;;;2.25;;
71343;SDS011;59146;43.850;25.948;2022-07-09T12:10:33;5.18;;;2.45;;
71343;SDS011;59146;43.850;25.948;2022-07-09T12:13:09;8.82;;;2.35;;
71343;SDS011;59146;43.850;25.948;2022-07-09T12:15:39;3.20;;;2.45;;
71343;SDS011;59146;43.850;25.948;2022-07-09T12:18:05;7.93;;;2.05;;
71343;SDS011;59146;43.850;25.948;2022-07-09T12:20:40;5.68;;;1.90;;
71343;SDS011;59146;43.850;25.948;2022-07-09T12:23:06;4.20;;;2.53;;
71343;SDS011;59146;43.850;25.948;2022-07-09T12:25:31;5.05;;;2.28;;
71343;SDS011;59146;43.850;25.948;2022-07-09T12:27:56;3.60;;;2.05;;
71343;SDS011;59146;43.850;25.948;2022-07-09T12:30:22;3.10;;;2.20;;
71343;SDS011;59146;43.850;25.948;2022-07-09T12:32:47;7.22;;;2.20;;
71343;SDS011;59146;43.850;25.948;2022-07-09T12:35:23;3.97;;;2.15;;
71343;SDS011;59146;43.850;25.948;2022-07-09T12:37:53;5.65;;;2.50;;
71343;SDS011;59146;43.850;25.948;2022-07-09T12:40:23;7.82;;;2.10;;
71343;SDS011;59146;43.850;25.948;2022-07-09T12:42:49;5.35;;;2.03;;
71343;SDS011;59146;43.850;25.948;2022-07-09T12:45:22;6.13;;;1.77;;
71343;SDS011;59146;43.850;25.948;2022-07-09T12:47:53;10.80;;;2.10;;
71343;SDS011;59146;43.850;25.948;2022-07-09T12:50:36;3.30;;;1.90;;
71343;SDS011;59146;43.850;25.948;2022-07-09T12:53:01;7.45;;;2.03;;
71343;SDS011;59146;43.850;25.948;2022-07-09T12:55:34;3.38;;;2.33;;
71343;SDS011;59146;43.850;25.948;2022-07-09T12:58:04;4.65;;;2.30;;
71343;SDS011;59146;43.850;25.948;2022-07-09T13:02:59;1.92;;;1.73;;
71343;SDS011;59146;43.850;25.948;2022-07-09T13:05:32;6.28;;;2.17;;
71343;SDS011;59146;43.850;25.948;2022-07-09T13:08:00;4.93;;;1.85;;
71343;SDS011;59146;43.850;25.948;2022-07-09T13:10:25;4.40;;;1.95;;
71343;SDS011;59146;43.850;25.948;2022-07-09T13:12:53;9.45;;;2.30;;
71343;SDS011;59146;43.850;25.948;2022-07-09T13:15:29;7.43;;;2.00;;
71343;SDS011;59146;43.850;25.948;2022-07-09T13:17:57;8.05;;;1.92;;
71343;SDS011;59146;43.850;25.948;2022-07-09T13:20:25;4.38;;;2.20;;
71343;SDS011;59146;43.850;25.948;2022-07-09T13:23:03;6.63;;;2.03;;
71343;SDS011;59146;43.850;25.948;2022-07-09T13:25:31;6.25;;;2.33;;
71343;SDS011;59146;43.850;25.948;2022-07-09T13:27:59;6.53;;;2.35;;
71343;SDS011;59146;43.850;25.948;2022-07-09T13:30:27;9.65;;;1.95;;
71343;SDS011;59146;43.850;25.948;2022-07-09T13:33:16;6.35;;;2.60;;
71343;SDS011;59146;43.850;25.948;2022-07-09T13:36:18;5.20;;;2.42;;
71343;SDS011;59146;43.850;25.948;2022-07-09T13:39:05;4.07;;;1.90;;
71343;SDS011;59146;43.850;25.948;2022-07-09T13:41:30;6.90;;;1.95;;
71343;SDS011;59146;43.850;25.948;2022-07-09T13:43:56;6.20;;;2.42;;
71343;SDS011;59146;43.850;25.948;2022-07-09T13:46:21;5.55;;;2.40;;
71343;SDS011;59146;43.850;25.948;2022-07-09T13:48:54;4.28;;;2.03;;
71343;SDS011;59146;43.850;25.948;2022-07-09T13:51:19;4.18;;;2.20;;
71343;SDS011;59146;43.850;25.948;2022-07-09T13:53:44;3.22;;;2.08;;
71343;SDS011;59146;43.850;25.948;2022-07-09T13:56:10;5.05;;;2.30;;
71343;SDS011;59146;43.850;25.948;2022-07-09T13:58:38;3.83;;;2.42;;
71343;SDS011;59146;43.850;25.948;2022-07-09T14:01:09;8.73;;;2.70;;
71343;SDS011;59146;43.850;25.948;2022-07-09T14:03:34;4.75;;;2.28;;
71343;SDS011;59146;43.850;25.948;2022-07-09T14:06:00;1.75;;;1.63;;
71343;SDS011;59146;43.850;25.948;2022-07-09T14:08:25;4.43;;;2.53;;
71343;SDS011;59146;43.850;25.948;2022-07-09T14:10:53;3.30;;;2.17;;
71343;SDS011;59146;43.850;25.948;2022-07-09T14:13:23;5.18;;;2.70;;
71343;SDS011;59146;43.850;25.948;2022-07-09T14:15:52;5.00;;;2.60;;
71343;SDS011;59146;43.850;25.948;2022-07-09T14:20:49;2.15;;;1.90;;
71343;SDS011;59146;43.850;25.948;2022-07-09T14:23:17;6.28;;;2.38;;
71343;SDS011;59146;43.850;25.948;2022-07-09T14:25:47;3.60;;;2.55;;
71343;SDS011;59146;43.850;25.948;2022-07-09T14:28:25;3.88;;;2.30;;
71343;SDS011;59146;43.850;25.948;2022-07-09T14:30:51;4.32;;;2.30;;
71343;SDS011;59146;43.850;25.948;2022-07-09T14:33:18;3.38;;;2.20;;
71343;SDS011;59146;43.850;25.948;2022-07-09T14:35:51;4.05;;;2.42;;
71343;SDS011;59146;43.850;25.948;2022-07-09T14:38:28;4.18;;;2.60;;
71343;SDS011;59146;43.850;25.948;2022-07-09T14:41:03;3.42;;;2.30;;
71343;SDS011;59146;43.850;25.948;2022-07-09T14:43:54;6.55;;;2.35;;
71343;SDS011;59146;43.850;25.948;2022-07-09T14:46:51;4.30;;;2.30;;
71343;SDS011;59146;43.850;25.948;2022-07-09T14:49:31;5.10;;;2.60;;
71343;SDS011;59146;43.850;25.948;2022-07-09T14:52:02;3.90;;;2.17;;
71343;SDS011;59146;43.850;25.948;2022-07-09T14:54:47;4.38;;;1.90;;
71343;SDS011;59146;43.850;25.948;2022-07-09T14:57:31;5.22;;;2.30;;
71343;SDS011;59146;43.850;25.948;2022-07-09T14:59:59;3.28;;;2.13;;
71343;SDS011;59146;43.850;25.948;2022-07-09T15:08:53;6.85;;;2.53;;
71343;SDS011;59146;43.850;25.948;2022-07-09T15:15:12;2.45;;;2.25;;
71343;SDS011;59146;43.850;25.948;2022-07-09T15:17:38;3.92;;;2.40;;
71343;SDS011;59146;43.850;25.948;2022-07-09T15:20:03;4.50;;;2.53;;
71343;SDS011;59146;43.850;25.948;2022-07-09T15:22:29;6.22;;;2.20;;
71343;SDS011;59146;43.850;25.948;2022-07-09T15:24:55;3.30;;;1.95;;
71343;SDS011;59146;43.850;25.948;2022-07-09T15:27:20;3.25;;;2.20;;
71343;SDS011;59146;43.850;25.948;2022-07-09T15:29:46;6.72;;;2.42;;
71343;SDS011;59146;43.850;25.948;2022-07-09T15:32:11;6.13;;;3.13;;
71343;SDS011;59146;43.850;25.948;2022-07-09T15:34:37;12.20;;;2.45;;
71343;SDS011;59146;43.850;25.948;2022-07-09T15:37:05;2.83;;;2.38;;
71343;SDS011;59146;43.850;25.948;2022-07-09T15:39:36;4.82;;;2.25;;
71343;SDS011;59146;43.850;25.948;2022-07-09T15:42:15;8.40;;;2.55;;
71343;SDS011;59146;43.850;25.948;2022-07-09T15:44:41;4.93;;;2.85;;
71343;SDS011;59146;43.850;25.948;2022-07-09T15:47:06;2.75;;;2.20;;